Auke Bay, Alaska
Current Conditions -  °F | °C
As of 1:53 AM on Friday 31 Oct 2014 (Local Time) from PAJN Reporting Station
Light Rain Light Rain  
Wind Chill: 37°   Ceiling: 3300
Heat Index: 42°   Visibility: 10mi
Dew Point: 39°   Wind: 8mph
Humidity: 89%   Direction: 90°E
Pressure: 29.51"   Gusts: NA
Location:  58.38°N, 134.67°W
Report Text: PAJN 310953Z 09007KT 10SM -RA FEW018 BKN033 OVC060 06/04 A2951 RMK AO2 RAB15 SLP994 PCPN VRY LGT P0000 T00560039
Loading
Personal Weather Stations






























Interactive Weather Map New forecast layout! Learn more

10-Day Weather Forecast

Advertisements
Track Severe Weather on mobile